• Join FlightAware (Why Join?)
  • Login
  • US Flag 
02:31AM EDT


 

Airport Tracker/Info


-or-


 

Live Flight TrackerFlight Track Log ✈ N93WT ✈ 24-Jun-2013 ✈ KADS - KABI

Flight Track Log - Related Links

Times and Time Zones

All times are in EDT time to prevent confusion due to time zone crossing. See the N93WT flight status page for this flight to view local times or setup timezone preferences in your user account.

Time Position Orientation Groundspeed Altitude Reporting Facility
EDT Latitude Longitude Course Direction KTS MPH feet Rate Location/Type
04:01PM 32.9500 -96.8333 157° South 134 154 1,100  Level Dallas / Fort Worth TRACON
04:02PM 32.9167 -96.8167 157° South 155 178 2,200 1,020 Climbing Dallas / Fort Worth TRACON
04:03PM 32.8833 -96.8500 220° Southwest 149 171 3,200 840 Climbing Dallas / Fort Worth TRACON
04:04PM 32.8667 -96.9000 248° West 171 197 3,900 360 Climbing Dallas / Fort Worth TRACON
04:05PM 32.8833 -96.9667 287° West 213 245 3,900  Level Dallas / Fort Worth TRACON
04:06PM 32.9000 -97.0333 287° West 205 236 3,900  Level Dallas / Fort Worth TRACON
04:07PM 32.9000 -97.1000 270° West 211 243 3,900  Level Dallas / Fort Worth TRACON
04:08PM 32.9167 -97.1667 287° West 207 238 3,900 180 Level Dallas / Fort Worth TRACON
04:09PM 32.9000 -97.2333 253° West 188 216 4,300 780 Climbing Dallas / Fort Worth TRACON
04:11PM 32.8814 -97.3144 255° West 205 236 5,800 900 Climbing Fort Worth Center
04:12PM 32.8647 -97.3836 254° West 205 236 6,500 900 Climbing Fort Worth Center
04:13PM 32.8522 -97.4381 255° West 199 229 7,700 900 Climbing Fort Worth Center
04:14PM 32.8375 -97.5075 256° West 199 229 8,300 720 Climbing Fort Worth Center
04:15PM 32.8250 -97.5617 255° West 199 229 9,200 840 Climbing Fort Worth Center
04:16PM 32.8122 -97.6308 258° West 199 229 10,000 780 Climbing Fort Worth Center
04:17PM 32.7975 -97.6928 254° West 199 229 10,800 1,020 Climbing Fort Worth Center
04:18PM 32.7806 -97.7569 253° West 199 229 12,100 1,260 Climbing Fort Worth Center
04:19PM 32.7639 -97.8236 253° West 204 235 13,300 900 Climbing Fort Worth Center
04:20PM 32.7489 -97.8853 254° West 204 235 14,000 300 Climbing Fort Worth Center
04:21PM 32.7300 -97.9592 253° West 225 259 14,000  Level Fort Worth Center
04:22PM 32.7128 -98.0381 255° West 244 281 14,000  Level Fort Worth Center
04:23PM 32.7039 -98.1194 263° West 250 288 14,000  Level Fort Worth Center
04:24PM 32.6972 -98.1961 264° West 256 295 14,000  Level Fort Worth Center
04:25PM 32.6883 -98.2872 263° West 261 300 14,000  Level Fort Worth Center
04:26PM 32.6794 -98.3611 262° West 256 295 14,000  Level Fort Worth Center
04:27PM 32.6703 -98.4550 263° West 256 295 14,000  Level Fort Worth Center
04:28PM 32.6572 -98.5361 259° West 256 295 14,000  Level Fort Worth Center
04:29PM 32.6481 -98.6175 262° West 256 295 14,000 -60 Level Fort Worth Center
04:30PM 32.6347 -98.7036 260° West 256 295 13,900 -240 Descending Fort Worth Center
04:31PM 32.6253 -98.7850 262° West 256 295 13,600 -540 Descending Fort Worth Center
04:32PM 32.6183 -98.8686 264° West 256 295 12,900 -780 Descending Fort Worth Center
04:33PM 32.6067 -98.9497 260° West 256 295 12,100 -900 Descending Fort Worth Center
04:34PM 32.5911 -99.0333 258° West 256 295 11,100 -960 Descending Fort Worth Center
04:35PM 32.5714 -99.1094 253° West 256 295 10,200 -900 Descending Fort Worth Center
04:36PM 32.5494 -99.1856 251° West 256 295 9,300 -960 Descending Fort Worth Center
04:37PM 32.5256 -99.2539 247° West 246 283 8,300 -1,080 Descending Fort Worth Center
04:38PM 32.5097 -99.3250 255° West 235 270 7,200 -1,080 Descending Fort Worth Center
04:39PM 32.4900 -99.3911 251° West 229 264 6,200 -1,020 Descending Fort Worth Center
04:40PM 32.4783 -99.4622 259° West 224 258 5,200 -900 Descending Fort Worth Center
04:41PM 32.4711 -99.5189 261° West 224 258 4,500 -900 Descending Fort Worth Center
04:42PM 32.4617 -99.5925 261° West 219 252 3,400 -600 Descending Fort Worth Center
04:43PM 32.4625 -99.6564 271° West 214 246 3,300 -120 Descending Fort Worth Center
04:45PM 32.4113 -99.6819 257° West  Level Estimated
04:52PM 32.4113 -99.6819 115° Southeast  Level Estimated